sensor_id;sensor_type;location;lat;lon;timestamp;P1;durP1;ratioP1;P2;durP2;ratioP2
38312;SDS011;24114;52.260;6.714;2022-08-19T00:00:37;7.30;;;6.60;;
38312;SDS011;24114;52.260;6.714;2022-08-19T00:03:05;7.18;;;6.60;;
38312;SDS011;24114;52.260;6.714;2022-08-19T00:05:34;7.85;;;7.05;;
38312;SDS011;24114;52.260;6.714;2022-08-19T00:08:03;7.85;;;7.07;;
38312;SDS011;24114;52.260;6.714;2022-08-19T00:10:31;8.00;;;7.40;;
38312;SDS011;24114;52.260;6.714;2022-08-19T00:13:00;8.00;;;7.30;;
38312;SDS011;24114;52.260;6.714;2022-08-19T00:15:27;7.97;;;7.18;;
38312;SDS011;24114;52.260;6.714;2022-08-19T00:17:55;7.50;;;6.90;;
38312;SDS011;24114;52.260;6.714;2022-08-19T00:20:23;7.97;;;7.28;;
38312;SDS011;24114;52.260;6.714;2022-08-19T00:22:51;7.93;;;7.22;;
38312;SDS011;24114;52.260;6.714;2022-08-19T00:25:21;8.13;;;7.43;;
38312;SDS011;24114;52.260;6.714;2022-08-19T00:27:55;8.27;;;7.45;;
38312;SDS011;24114;52.260;6.714;2022-08-19T00:30:23;7.47;;;6.80;;
38312;SDS011;24114;52.260;6.714;2022-08-19T00:32:53;8.55;;;7.95;;
38312;SDS011;24114;52.260;6.714;2022-08-19T00:35:21;8.50;;;7.70;;
38312;SDS011;24114;52.260;6.714;2022-08-19T00:37:53;8.07;;;7.18;;
38312;SDS011;24114;52.260;6.714;2022-08-19T00:40:23;8.27;;;7.57;;
38312;SDS011;24114;52.260;6.714;2022-08-19T00:42:51;8.23;;;7.43;;
38312;SDS011;24114;52.260;6.714;2022-08-19T00:45:21;7.80;;;7.10;;
38312;SDS011;24114;52.260;6.714;2022-08-19T00:47:50;8.20;;;7.38;;
38312;SDS011;24114;52.260;6.714;2022-08-19T00:50:18;8.02;;;7.43;;
38312;SDS011;24114;52.260;6.714;2022-08-19T00:52:49;8.40;;;7.70;;
38312;SDS011;24114;52.260;6.714;2022-08-19T00:55:19;8.25;;;7.55;;
38312;SDS011;24114;52.260;6.714;2022-08-19T00:57:49;7.97;;;7.28;;
38312;SDS011;24114;52.260;6.714;2022-08-19T01:00:20;8.65;;;7.95;;
38312;SDS011;24114;52.260;6.714;2022-08-19T01:02:49;9.40;;;8.60;;
38312;SDS011;24114;52.260;6.714;2022-08-19T01:05:19;9.90;;;8.90;;
38312;SDS011;24114;52.260;6.714;2022-08-19T01:07:50;9.88;;;9.00;;
38312;SDS011;24114;52.260;6.714;2022-08-19T01:10:19;9.55;;;8.75;;
38312;SDS011;24114;52.260;6.714;2022-08-19T01:12:49;8.98;;;8.18;;
38312;SDS011;24114;52.260;6.714;2022-08-19T01:15:18;11.18;;;9.27;;
38312;SDS011;24114;52.260;6.714;2022-08-19T01:17:48;9.82;;;8.95;;
38312;SDS011;24114;52.260;6.714;2022-08-19T01:20:17;10.25;;;9.32;;
38312;SDS011;24114;52.260;6.714;2022-08-19T01:22:50;9.43;;;8.60;;
38312;SDS011;24114;52.260;6.714;2022-08-19T01:25:27;9.85;;;8.93;;
38312;SDS011;24114;52.260;6.714;2022-08-19T01:27:56;9.80;;;8.93;;
38312;SDS011;24114;52.260;6.714;2022-08-19T01:30:35;10.05;;;9.07;;
38312;SDS011;24114;52.260;6.714;2022-08-19T01:33:03;8.55;;;7.85;;
38312;SDS011;24114;52.260;6.714;2022-08-19T01:35:32;10.20;;;9.25;;
38312;SDS011;24114;52.260;6.714;2022-08-19T01:38:07;9.65;;;8.85;;
38312;SDS011;24114;52.260;6.714;2022-08-19T01:40:38;10.30;;;9.40;;
38312;SDS011;24114;52.260;6.714;2022-08-19T01:43:09;10.00;;;9.05;;
38312;SDS011;24114;52.260;6.714;2022-08-19T01:45:37;9.43;;;8.52;;
38312;SDS011;24114;52.260;6.714;2022-08-19T01:48:06;10.32;;;9.38;;
38312;SDS011;24114;52.260;6.714;2022-08-19T01:50:35;8.75;;;8.02;;
38312;SDS011;24114;52.260;6.714;2022-08-19T01:53:04;9.65;;;8.75;;
38312;SDS011;24114;52.260;6.714;2022-08-19T01:55:35;9.73;;;8.82;;
38312;SDS011;24114;52.260;6.714;2022-08-19T01:58:07;9.55;;;8.65;;
38312;SDS011;24114;52.260;6.714;2022-08-19T02:00:36;10.02;;;9.13;;
38312;SDS011;24114;52.260;6.714;2022-08-19T02:03:03;10.15;;;9.25;;
38312;SDS011;24114;52.260;6.714;2022-08-19T02:05:32;11.98;;;10.30;;
38312;SDS011;24114;52.260;6.714;2022-08-19T02:08:00;9.98;;;9.07;;
38312;SDS011;24114;52.260;6.714;2022-08-19T02:10:30;9.95;;;8.75;;
38312;SDS011;24114;52.260;6.714;2022-08-19T02:13:00;9.85;;;8.93;;
38312;SDS011;24114;52.260;6.714;2022-08-19T02:15:28;11.05;;;9.93;;
38312;SDS011;24114;52.260;6.714;2022-08-19T02:17:59;10.52;;;9.60;;
38312;SDS011;24114;52.260;6.714;2022-08-19T02:20:26;9.73;;;8.73;;
38312;SDS011;24114;52.260;6.714;2022-08-19T02:22:54;9.65;;;8.75;;
38312;SDS011;24114;52.260;6.714;2022-08-19T02:25:22;10.07;;;9.10;;
38312;SDS011;24114;52.260;6.714;2022-08-19T02:27:54;9.68;;;8.82;;
38312;SDS011;24114;52.260;6.714;2022-08-19T02:30:22;10.02;;;9.13;;
38312;SDS011;24114;52.260;6.714;2022-08-19T02:32:50;10.85;;;9.85;;
38312;SDS011;24114;52.260;6.714;2022-08-19T02:35:18;10.73;;;9.82;;
38312;SDS011;24114;52.260;6.714;2022-08-19T02:37:46;10.27;;;9.38;;
38312;SDS011;24114;52.260;6.714;2022-08-19T02:40:47;9.75;;;8.85;;
38312;SDS011;24114;52.260;6.714;2022-08-19T02:43:21;9.93;;;9.00;;
38312;SDS011;24114;52.260;6.714;2022-08-19T02:45:51;9.80;;;8.77;;
38312;SDS011;24114;52.260;6.714;2022-08-19T02:48:20;10.25;;;9.23;;
38312;SDS011;24114;52.260;6.714;2022-08-19T02:50:48;10.23;;;9.20;;
38312;SDS011;24114;52.260;6.714;2022-08-19T02:53:22;9.80;;;8.82;;
38312;SDS011;24114;52.260;6.714;2022-08-19T02:55:50;10.80;;;9.80;;
38312;SDS011;24114;52.260;6.714;2022-08-19T02:58:22;9.77;;;8.93;;
38312;SDS011;24114;52.260;6.714;2022-08-19T03:00:51;9.65;;;8.75;;
38312;SDS011;24114;52.260;6.714;2022-08-19T03:03:20;10.02;;;8.88;;
38312;SDS011;24114;52.260;6.714;2022-08-19T03:05:48;8.20;;;7.50;;
38312;SDS011;24114;52.260;6.714;2022-08-19T03:08:22;9.70;;;8.80;;
38312;SDS011;24114;52.260;6.714;2022-08-19T03:10:50;9.50;;;8.57;;
38312;SDS011;24114;52.260;6.714;2022-08-19T03:13:27;10.27;;;9.30;;
38312;SDS011;24114;52.260;6.714;2022-08-19T03:15:55;10.20;;;9.20;;
38312;SDS011;24114;52.260;6.714;2022-08-19T03:18:23;10.05;;;9.18;;
38312;SDS011;24114;52.260;6.714;2022-08-19T03:20:53;9.70;;;8.70;;
38312;SDS011;24114;52.260;6.714;2022-08-19T03:23:22;9.77;;;8.93;;
38312;SDS011;24114;52.260;6.714;2022-08-19T03:25:50;9.20;;;8.43;;
38312;SDS011;24114;52.260;6.714;2022-08-19T03:28:32;9.88;;;8.98;;
38312;SDS011;24114;52.260;6.714;2022-08-19T03:31:02;9.35;;;8.52;;
38312;SDS011;24114;52.260;6.714;2022-08-19T03:33:51;8.95;;;8.18;;
38312;SDS011;24114;52.260;6.714;2022-08-19T03:36:19;8.60;;;7.80;;
38312;SDS011;24114;52.260;6.714;2022-08-19T03:38:49;9.32;;;8.50;;
38312;SDS011;24114;52.260;6.714;2022-08-19T03:41:25;9.30;;;8.48;;
38312;SDS011;24114;52.260;6.714;2022-08-19T03:44:16;9.00;;;8.20;;
38312;SDS011;24114;52.260;6.714;2022-08-19T03:46:48;9.88;;;8.98;;
38312;SDS011;24114;52.260;6.714;2022-08-19T03:49:17;8.77;;;7.97;;
38312;SDS011;24114;52.260;6.714;2022-08-19T03:51:48;8.93;;;8.13;;
38312;SDS011;24114;52.260;6.714;2022-08-19T03:54:18;8.23;;;7.53;;
38312;SDS011;24114;52.260;6.714;2022-08-19T03:56:49;8.95;;;8.15;;
38312;SDS011;24114;52.260;6.714;2022-08-19T03:59:20;9.15;;;8.35;;
38312;SDS011;24114;52.260;6.714;2022-08-19T04:01:52;9.88;;;8.90;;
38312;SDS011;24114;52.260;6.714;2022-08-19T04:04:21;9.45;;;8.57;;
38312;SDS011;24114;52.260;6.714;2022-08-19T04:06:54;10.30;;;9.27;;
38312;SDS011;24114;52.260;6.714;2022-08-19T04:09:22;10.75;;;9.75;;
38312;SDS011;24114;52.260;6.714;2022-08-19T04:11:51;9.77;;;8.88;;
38312;SDS011;24114;52.260;6.714;2022-08-19T04:14:24;17.67;;;9.70;;
38312;SDS011;24114;52.260;6.714;2022-08-19T04:16:54;9.93;;;9.00;;
38312;SDS011;24114;52.260;6.714;2022-08-19T04:19:21;9.27;;;8.48;;
38312;SDS011;24114;52.260;6.714;2022-08-19T04:21:50;8.90;;;8.13;;
38312;SDS011;24114;52.260;6.714;2022-08-19T04:24:19;9.30;;;8.48;;
38312;SDS011;24114;52.260;6.714;2022-08-19T04:26:48;9.25;;;8.43;;
38312;SDS011;24114;52.260;6.714;2022-08-19T04:29:16;9.70;;;8.82;;
38312;SDS011;24114;52.260;6.714;2022-08-19T04:31:47;8.82;;;8.02;;
38312;SDS011;24114;52.260;6.714;2022-08-19T04:34:16;9.10;;;8.32;;
38312;SDS011;24114;52.260;6.714;2022-08-19T04:36:48;8.68;;;7.93;;
38312;SDS011;24114;52.260;6.714;2022-08-19T04:39:20;8.70;;;7.93;;
38312;SDS011;24114;52.260;6.714;2022-08-19T04:41:49;8.82;;;8.13;;
38312;SDS011;24114;52.260;6.714;2022-08-19T04:44:34;9.30;;;8.48;;
38312;SDS011;24114;52.260;6.714;2022-08-19T04:47:13;9.38;;;7.78;;
38312;SDS011;24114;52.260;6.714;2022-08-19T04:49:46;8.60;;;7.80;;
38312;SDS011;24114;52.260;6.714;2022-08-19T04:52:16;9.02;;;8.23;;
38312;SDS011;24114;52.260;6.714;2022-08-19T04:54:46;9.32;;;8.50;;
38312;SDS011;24114;52.260;6.714;2022-08-19T04:57:16;10.48;;;9.48;;
38312;SDS011;24114;52.260;6.714;2022-08-19T04:59:44;10.23;;;9.38;;
38312;SDS011;24114;52.260;6.714;2022-08-19T05:02:16;10.95;;;9.95;;
38312;SDS011;24114;52.260;6.714;2022-08-19T05:04:43;9.85;;;8.95;;
38312;SDS011;24114;52.260;6.714;2022-08-19T05:07:11;9.60;;;8.75;;
38312;SDS011;24114;52.260;6.714;2022-08-19T05:09:39;9.25;;;8.45;;
38312;SDS011;24114;52.260;6.714;2022-08-19T05:12:24;10.45;;;9.13;;
38312;SDS011;24114;52.260;6.714;2022-08-19T05:14:54;10.27;;;9.38;;
38312;SDS011;24114;52.260;6.714;2022-08-19T05:17:25;9.80;;;9.00;;
38312;SDS011;24114;52.260;6.714;2022-08-19T05:19:58;9.88;;;8.98;;
38312;SDS011;24114;52.260;6.714;2022-08-19T05:22:45;8.75;;;7.68;;
38312;SDS011;24114;52.260;6.714;2022-08-19T05:25:15;9.38;;;8.52;;
38312;SDS011;24114;52.260;6.714;2022-08-19T05:27:48;8.73;;;7.95;;
38312;SDS011;24114;52.260;6.714;2022-08-19T05:30:17;8.43;;;7.68;;
38312;SDS011;24114;52.260;6.714;2022-08-19T05:33:06;8.23;;;7.53;;
38312;SDS011;24114;52.260;6.714;2022-08-19T05:35:36;10.35;;;8.93;;
38312;SDS011;24114;52.260;6.714;2022-08-19T05:38:04;10.68;;;9.75;;
38312;SDS011;24114;52.260;6.714;2022-08-19T05:40:33;10.20;;;8.75;;
38312;SDS011;24114;52.260;6.714;2022-08-19T05:43:02;9.68;;;8.77;;
38312;SDS011;24114;52.260;6.714;2022-08-19T05:45:30;10.75;;;9.55;;
38312;SDS011;24114;52.260;6.714;2022-08-19T05:47:58;9.90;;;8.95;;
38312;SDS011;24114;52.260;6.714;2022-08-19T05:50:27;10.45;;;9.45;;
38312;SDS011;24114;52.260;6.714;2022-08-19T05:52:55;11.30;;;10.30;;
38312;SDS011;24114;52.260;6.714;2022-08-19T05:55:23;11.07;;;9.98;;
38312;SDS011;24114;52.260;6.714;2022-08-19T05:57:51;12.07;;;10.88;;
38312;SDS011;24114;52.260;6.714;2022-08-19T06:00:18;11.00;;;9.93;;
38312;SDS011;24114;52.260;6.714;2022-08-19T06:02:50;12.52;;;11.35;;
38312;SDS011;24114;52.260;6.714;2022-08-19T06:05:18;13.63;;;12.30;;
38312;SDS011;24114;52.260;6.714;2022-08-19T06:07:47;13.23;;;11.93;;
38312;SDS011;24114;52.260;6.714;2022-08-19T06:10:15;14.95;;;13.55;;
38312;SDS011;24114;52.260;6.714;2022-08-19T06:12:43;16.52;;;14.38;;
38312;SDS011;24114;52.260;6.714;2022-08-19T06:15:12;16.75;;;15.15;;
38312;SDS011;24114;52.260;6.714;2022-08-19T06:17:44;15.55;;;14.07;;
38312;SDS011;24114;52.260;6.714;2022-08-19T06:20:13;15.25;;;13.85;;
38312;SDS011;24114;52.260;6.714;2022-08-19T06:23:01;17.30;;;15.60;;
38312;SDS011;24114;52.260;6.714;2022-08-19T06:25:28;16.00;;;14.38;;
38312;SDS011;24114;52.260;6.714;2022-08-19T06:27:56;17.27;;;14.95;;
38312;SDS011;24114;52.260;6.714;2022-08-19T06:30:43;15.20;;;13.70;;
38312;SDS011;24114;52.260;6.714;2022-08-19T06:33:10;15.15;;;13.75;;
38312;SDS011;24114;52.260;6.714;2022-08-19T06:35:38;17.02;;;14.77;;
38312;SDS011;24114;52.260;6.714;2022-08-19T06:38:07;15.85;;;14.35;;
38312;SDS011;24114;52.260;6.714;2022-08-19T06:40:35;15.88;;;14.38;;
38312;SDS011;24114;52.260;6.714;2022-08-19T06:43:05;16.15;;;14.52;;
38312;SDS011;24114;52.260;6.714;2022-08-19T06:45:36;19.15;;;16.10;;
38312;SDS011;24114;52.260;6.714;2022-08-19T06:48:05;18.52;;;16.48;;
38312;SDS011;24114;52.260;6.714;2022-08-19T06:50:33;16.77;;;14.60;;
38312;SDS011;24114;52.260;6.714;2022-08-19T06:53:05;19.50;;;17.50;;
38312;SDS011;24114;52.260;6.714;2022-08-19T06:55:38;17.30;;;15.60;;
38312;SDS011;24114;52.260;6.714;2022-08-19T06:58:08;19.15;;;17.10;;
38312;SDS011;24114;52.260;6.714;2022-08-19T07:00:36;17.45;;;15.68;;
38312;SDS011;24114;52.260;6.714;2022-08-19T07:03:07;17.92;;;15.93;;
38312;SDS011;24114;52.260;6.714;2022-08-19T07:05:39;17.45;;;15.15;;
38312;SDS011;24114;52.260;6.714;2022-08-19T07:08:11;16.40;;;14.75;;
38312;SDS011;24114;52.260;6.714;2022-08-19T07:10:43;19.13;;;15.35;;
38312;SDS011;24114;52.260;6.714;2022-08-19T07:13:11;18.63;;;16.50;;
38312;SDS011;24114;52.260;6.714;2022-08-19T07:15:39;16.75;;;15.05;;
38312;SDS011;24114;52.260;6.714;2022-08-19T07:18:08;15.45;;;13.57;;
38312;SDS011;24114;52.260;6.714;2022-08-19T07:20:38;18.10;;;15.95;;
38312;SDS011;24114;52.260;6.714;2022-08-19T07:23:07;17.90;;;14.45;;
38312;SDS011;24114;52.260;6.714;2022-08-19T07:25:43;17.40;;;15.43;;
38312;SDS011;24114;52.260;6.714;2022-08-19T07:28:18;17.83;;;16.08;;
38312;SDS011;24114;52.260;6.714;2022-08-19T07:30:50;18.73;;;16.50;;
38312;SDS011;24114;52.260;6.714;2022-08-19T07:33:20;18.75;;;16.85;;
38312;SDS011;24114;52.260;6.714;2022-08-19T07:35:48;17.83;;;16.02;;
38312;SDS011;24114;52.260;6.714;2022-08-19T07:38:16;17.58;;;15.73;;
38312;SDS011;24114;52.260;6.714;2022-08-19T07:40:49;19.95;;;17.00;;
38312;SDS011;24114;52.260;6.714;2022-08-19T07:43:17;18.52;;;16.50;;
38312;SDS011;24114;52.260;6.714;2022-08-19T07:46:00;20.73;;;18.20;;
38312;SDS011;24114;52.260;6.714;2022-08-19T07:48:27;20.08;;;18.10;;
38312;SDS011;24114;52.260;6.714;2022-08-19T07:50:59;20.48;;;18.30;;
38312;SDS011;24114;52.260;6.714;2022-08-19T07:53:30;19.33;;;17.48;;
38312;SDS011;24114;52.260;6.714;2022-08-19T07:56:06;19.77;;;17.70;;
38312;SDS011;24114;52.260;6.714;2022-08-19T07:58:38;18.52;;;16.50;;
38312;SDS011;24114;52.260;6.714;2022-08-19T08:01:08;18.95;;;17.10;;
38312;SDS011;24114;52.260;6.714;2022-08-19T08:03:37;18.77;;;16.85;;
38312;SDS011;24114;52.260;6.714;2022-08-19T08:06:26;20.00;;;17.58;;
38312;SDS011;24114;52.260;6.714;2022-08-19T08:09:11;16.07;;;14.43;;
38312;SDS011;24114;52.260;6.714;2022-08-19T08:11:54;16.85;;;15.20;;
38312;SDS011;24114;52.260;6.714;2022-08-19T08:14:30;18.25;;;16.45;;
38312;SDS011;24114;52.260;6.714;2022-08-19T08:17:01;17.35;;;15.63;;
38312;SDS011;24114;52.260;6.714;2022-08-19T08:19:36;17.08;;;15.35;;
38312;SDS011;24114;52.260;6.714;2022-08-19T08:22:06;17.98;;;16.05;;
38312;SDS011;24114;52.260;6.714;2022-08-19T08:24:55;16.80;;;15.20;;
38312;SDS011;24114;52.260;6.714;2022-08-19T08:27:25;18.05;;;16.23;;
38312;SDS011;24114;52.260;6.714;2022-08-19T08:29:57;18.25;;;16.45;;
38312;SDS011;24114;52.260;6.714;2022-08-19T08:32:28;17.80;;;16.05;;
38312;SDS011;24114;52.260;6.714;2022-08-19T08:34:58;17.75;;;15.15;;
38312;SDS011;24114;52.260;6.714;2022-08-19T08:37:26;18.00;;;15.88;;
38312;SDS011;24114;52.260;6.714;2022-08-19T08:40:07;17.80;;;16.02;;
38312;SDS011;24114;52.260;6.714;2022-08-19T08:42:44;17.02;;;15.32;;
38312;SDS011;24114;52.260;6.714;2022-08-19T08:45:18;16.85;;;15.23;;
38312;SDS011;24114;52.260;6.714;2022-08-19T08:47:47;17.63;;;15.73;;
38312;SDS011;24114;52.260;6.714;2022-08-19T08:50:19;17.67;;;16.00;;
38312;SDS011;24114;52.260;6.714;2022-08-19T08:52:52;19.52;;;17.30;;
38312;SDS011;24114;52.260;6.714;2022-08-19T08:55:25;17.67;;;15.88;;
38312;SDS011;24114;52.260;6.714;2022-08-19T08:58:04;18.92;;;16.98;;
38312;SDS011;24114;52.260;6.714;2022-08-19T09:00:35;17.98;;;16.08;;
38312;SDS011;24114;52.260;6.714;2022-08-19T09:03:05;16.27;;;14.68;;
38312;SDS011;24114;52.260;6.714;2022-08-19T09:05:40;16.45;;;14.90;;
38312;SDS011;24114;52.260;6.714;2022-08-19T09:08:16;15.43;;;13.93;;
38312;SDS011;24114;52.260;6.714;2022-08-19T09:10:55;17.08;;;15.45;;
38312;SDS011;24114;52.260;6.714;2022-08-19T09:13:26;16.55;;;14.95;;
38312;SDS011;24114;52.260;6.714;2022-08-19T09:16:06;15.20;;;13.40;;
38312;SDS011;24114;52.260;6.714;2022-08-19T09:18:38;14.82;;;13.25;;
38312;SDS011;24114;52.260;6.714;2022-08-19T09:21:08;16.08;;;14.20;;
38312;SDS011;24114;52.260;6.714;2022-08-19T09:23:36;14.30;;;12.90;;
38312;SDS011;24114;52.260;6.714;2022-08-19T09:26:06;14.52;;;13.02;;
38312;SDS011;24114;52.260;6.714;2022-08-19T09:28:38;14.38;;;12.88;;
38312;SDS011;24114;52.260;6.714;2022-08-19T09:31:14;14.23;;;12.80;;
38312;SDS011;24114;52.260;6.714;2022-08-19T09:33:47;17.52;;;14.65;;
38312;SDS011;24114;52.260;6.714;2022-08-19T09:36:19;15.82;;;13.65;;
38312;SDS011;24114;52.260;6.714;2022-08-19T09:39:00;14.27;;;12.90;;
38312;SDS011;24114;52.260;6.714;2022-08-19T09:41:28;15.35;;;13.75;;
38312;SDS011;24114;52.260;6.714;2022-08-19T09:43:57;14.90;;;13.30;;
38312;SDS011;24114;52.260;6.714;2022-08-19T09:46:27;13.48;;;12.07;;
38312;SDS011;24114;52.260;6.714;2022-08-19T09:48:57;15.60;;;13.60;;
38312;SDS011;24114;52.260;6.714;2022-08-19T09:51:31;14.52;;;13.02;;
38312;SDS011;24114;52.260;6.714;2022-08-19T09:54:00;14.73;;;13.25;;
38312;SDS011;24114;52.260;6.714;2022-08-19T09:56:30;13.75;;;12.25;;
38312;SDS011;24114;52.260;6.714;2022-08-19T09:59:01;15.55;;;12.20;;
38312;SDS011;24114;52.260;6.714;2022-08-19T10:01:30;14.55;;;13.02;;
38312;SDS011;24114;52.260;6.714;2022-08-19T10:04:01;12.13;;;10.93;;
38312;SDS011;24114;52.260;6.714;2022-08-19T10:06:45;14.23;;;12.77;;
38312;SDS011;24114;52.260;6.714;2022-08-19T10:09:19;11.55;;;10.35;;
38312;SDS011;24114;52.260;6.714;2022-08-19T10:11:59;9.85;;;8.07;;
38312;SDS011;24114;52.260;6.714;2022-08-19T10:14:29;9.77;;;8.88;;
38312;SDS011;24114;52.260;6.714;2022-08-19T10:16:57;8.95;;;8.15;;
38312;SDS011;24114;52.260;6.714;2022-08-19T10:19:45;8.95;;;8.13;;
38312;SDS011;24114;52.260;6.714;2022-08-19T10:24:51;6.65;;;6.15;;
38312;SDS011;24114;52.260;6.714;2022-08-19T10:27:19;8.80;;;7.97;;
38312;SDS011;24114;52.260;6.714;2022-08-19T10:29:53;9.57;;;8.65;;
38312;SDS011;24114;52.260;6.714;2022-08-19T10:32:23;9.63;;;8.68;;
38312;SDS011;24114;52.260;6.714;2022-08-19T10:34:59;10.93;;;9.43;;
38312;SDS011;24114;52.260;6.714;2022-08-19T10:37:31;10.50;;;9.50;;
38312;SDS011;24114;52.260;6.714;2022-08-19T10:40:01;9.65;;;8.73;;
38312;SDS011;24114;52.260;6.714;2022-08-19T10:42:30;11.88;;;10.15;;
38312;SDS011;24114;52.260;6.714;2022-08-19T10:45:00;12.40;;;11.25;;
38312;SDS011;24114;52.260;6.714;2022-08-19T10:47:30;12.85;;;10.45;;
38312;SDS011;24114;52.260;6.714;2022-08-19T10:49:58;11.27;;;10.27;;
38312;SDS011;24114;52.260;6.714;2022-08-19T10:52:43;13.60;;;12.32;;
38312;SDS011;24114;52.260;6.714;2022-08-19T10:55:16;14.75;;;13.32;;
38312;SDS011;24114;52.260;6.714;2022-08-19T10:58:02;13.80;;;12.48;;
38312;SDS011;24114;52.260;6.714;2022-08-19T11:00:32;13.70;;;12.40;;
38312;SDS011;24114;52.260;6.714;2022-08-19T11:03:00;15.30;;;13.90;;
38312;SDS011;24114;52.260;6.714;2022-08-19T11:05:27;13.57;;;12.40;;
38312;SDS011;24114;52.260;6.714;2022-08-19T11:08:04;13.20;;;12.02;;
38312;SDS011;24114;52.260;6.714;2022-08-19T11:10:48;13.20;;;11.80;;
38312;SDS011;24114;52.260;6.714;2022-08-19T11:13:16;11.57;;;10.48;;
38312;SDS011;24114;52.260;6.714;2022-08-19T11:15:45;11.00;;;10.00;;
38312;SDS011;24114;52.260;6.714;2022-08-19T11:18:14;9.60;;;8.60;;
38312;SDS011;24114;52.260;6.714;2022-08-19T11:20:45;8.57;;;7.70;;
38312;SDS011;24114;52.260;6.714;2022-08-19T11:23:12;8.57;;;7.78;;
38312;SDS011;24114;52.260;6.714;2022-08-19T11:25:40;10.60;;;9.50;;
38312;SDS011;24114;52.260;6.714;2022-08-19T11:28:11;9.40;;;8.23;;
38312;SDS011;24114;52.260;6.714;2022-08-19T11:30:39;8.90;;;8.07;;
38312;SDS011;24114;52.260;6.714;2022-08-19T11:33:08;8.80;;;8.00;;
38312;SDS011;24114;52.260;6.714;2022-08-19T11:35:38;10.90;;;9.82;;
38312;SDS011;24114;52.260;6.714;2022-08-19T11:38:06;7.53;;;6.80;;
38312;SDS011;24114;52.260;6.714;2022-08-19T11:40:35;5.95;;;5.13;;
38312;SDS011;24114;52.260;6.714;2022-08-19T11:43:03;5.78;;;5.13;;
38312;SDS011;24114;52.260;6.714;2022-08-19T11:45:34;6.15;;;5.55;;
38312;SDS011;24114;52.260;6.714;2022-08-19T11:48:03;6.70;;;6.10;;
38312;SDS011;24114;52.260;6.714;2022-08-19T11:50:33;6.25;;;5.38;;
38312;SDS011;24114;52.260;6.714;2022-08-19T11:53:01;7.70;;;6.90;;
38312;SDS011;24114;52.260;6.714;2022-08-19T11:55:30;7.38;;;6.57;;
38312;SDS011;24114;52.260;6.714;2022-08-19T11:57:59;7.15;;;6.55;;
38312;SDS011;24114;52.260;6.714;2022-08-19T12:00:27;7.20;;;6.28;;
38312;SDS011;24114;52.260;6.714;2022-08-19T12:02:55;9.02;;;7.07;;
38312;SDS011;24114;52.260;6.714;2022-08-19T12:05:24;7.80;;;6.65;;
38312;SDS011;24114;52.260;6.714;2022-08-19T12:07:53;6.78;;;6.18;;
38312;SDS011;24114;52.260;6.714;2022-08-19T12:10:22;6.53;;;5.93;;
38312;SDS011;24114;52.260;6.714;2022-08-19T12:15:20;6.65;;;6.05;;
38312;SDS011;24114;52.260;6.714;2022-08-19T12:17:47;5.28;;;4.82;;
38312;SDS011;24114;52.260;6.714;2022-08-19T12:20:17;6.70;;;5.07;;
38312;SDS011;24114;52.260;6.714;2022-08-19T12:22:56;5.13;;;4.65;;
38312;SDS011;24114;52.260;6.714;2022-08-19T12:25:37;4.03;;;3.72;;
38312;SDS011;24114;52.260;6.714;2022-08-19T12:31:04;4.25;;;3.95;;
38312;SDS011;24114;52.260;6.714;2022-08-19T12:33:32;5.43;;;4.93;;
38312;SDS011;24114;52.260;6.714;2022-08-19T12:36:01;6.70;;;4.32;;
38312;SDS011;24114;52.260;6.714;2022-08-19T12:38:31;6.75;;;5.72;;
38312;SDS011;24114;52.260;6.714;2022-08-19T12:43:22;5.82;;;5.32;;
38312;SDS011;24114;52.260;6.714;2022-08-19T12:45:50;4.80;;;4.50;;
38312;SDS011;24114;52.260;6.714;2022-08-19T12:48:18;5.07;;;4.68;;
38312;SDS011;24114;52.260;6.714;2022-08-19T12:50:59;6.25;;;5.63;;
38312;SDS011;24114;52.260;6.714;2022-08-19T12:53:28;6.32;;;5.50;;
38312;SDS011;24114;52.260;6.714;2022-08-19T12:55:55;5.75;;;5.10;;
38312;SDS011;24114;52.260;6.714;2022-08-19T12:58:25;5.22;;;4.72;;
38312;SDS011;24114;52.260;6.714;2022-08-19T13:00:53;8.23;;;6.50;;
38312;SDS011;24114;52.260;6.714;2022-08-19T13:03:21;8.45;;;6.82;;
38312;SDS011;24114;52.260;6.714;2022-08-19T13:05:53;6.80;;;6.20;;
38312;SDS011;24114;52.260;6.714;2022-08-19T13:08:21;5.47;;;4.97;;
38312;SDS011;24114;52.260;6.714;2022-08-19T13:10:49;5.80;;;5.30;;
38312;SDS011;24114;52.260;6.714;2022-08-19T13:13:17;6.18;;;5.57;;
38312;SDS011;24114;52.260;6.714;2022-08-19T13:15:46;7.72;;;6.93;;
38312;SDS011;24114;52.260;6.714;2022-08-19T13:18:14;7.75;;;7.10;;
38312;SDS011;24114;52.260;6.714;2022-08-19T13:20:42;8.35;;;7.65;;
38312;SDS011;24114;52.260;6.714;2022-08-19T13:23:18;7.40;;;6.25;;
38312;SDS011;24114;52.260;6.714;2022-08-19T13:25:54;7.38;;;6.68;;
38312;SDS011;24114;52.260;6.714;2022-08-19T13:28:23;9.68;;;8.65;;
38312;SDS011;24114;52.260;6.714;2022-08-19T13:30:55;8.13;;;7.25;;
38312;SDS011;24114;52.260;6.714;2022-08-19T13:33:41;9.10;;;8.20;;
38312;SDS011;24114;52.260;6.714;2022-08-19T13:36:08;8.55;;;6.90;;
38312;SDS011;24114;52.260;6.714;2022-08-19T13:38:37;8.82;;;7.93;;
38312;SDS011;24114;52.260;6.714;2022-08-19T13:41:05;11.32;;;9.25;;
38312;SDS011;24114;52.260;6.714;2022-08-19T13:43:39;13.43;;;8.30;;
38312;SDS011;24114;52.260;6.714;2022-08-19T13:46:10;11.25;;;9.00;;
38312;SDS011;24114;52.260;6.714;2022-08-19T13:48:40;12.32;;;10.05;;
38312;SDS011;24114;52.260;6.714;2022-08-19T13:51:08;10.82;;;9.07;;
38312;SDS011;24114;52.260;6.714;2022-08-19T13:53:37;8.48;;;7.72;;
38312;SDS011;24114;52.260;6.714;2022-08-19T13:56:05;9.45;;;8.52;;
38312;SDS011;24114;52.260;6.714;2022-08-19T13:58:33;7.93;;;6.82;;
38312;SDS011;24114;52.260;6.714;2022-08-19T14:01:01;8.82;;;8.02;;
38312;SDS011;24114;52.260;6.714;2022-08-19T14:03:30;8.40;;;7.32;;
38312;SDS011;24114;52.260;6.714;2022-08-19T14:05:59;8.07;;;7.28;;
38312;SDS011;24114;52.260;6.714;2022-08-19T14:08:27;7.43;;;6.70;;
38312;SDS011;24114;52.260;6.714;2022-08-19T14:10:58;7.85;;;7.05;;
38312;SDS011;24114;52.260;6.714;2022-08-19T14:13:31;8.73;;;7.78;;
38312;SDS011;24114;52.260;6.714;2022-08-19T14:16:00;8.48;;;7.60;;
38312;SDS011;24114;52.260;6.714;2022-08-19T14:18:28;8.50;;;7.70;;
38312;SDS011;24114;52.260;6.714;2022-08-19T14:20:57;8.43;;;7.13;;
38312;SDS011;24114;52.260;6.714;2022-08-19T14:23:25;6.50;;;6.00;;
38312;SDS011;24114;52.260;6.714;2022-08-19T14:25:53;5.95;;;5.45;;
38312;SDS011;24114;52.260;6.714;2022-08-19T14:28:28;7.38;;;5.72;;
38312;SDS011;24114;52.260;6.714;2022-08-19T14:30:56;6.38;;;5.40;;
38312;SDS011;24114;52.260;6.714;2022-08-19T14:33:24;6.20;;;5.60;;
38312;SDS011;24114;52.260;6.714;2022-08-19T14:35:55;6.13;;;4.45;;
38312;SDS011;24114;52.260;6.714;2022-08-19T14:38:26;8.30;;;4.40;;
38312;SDS011;24114;52.260;6.714;2022-08-19T14:41:05;4.32;;;3.95;;
38312;SDS011;24114;52.260;6.714;2022-08-19T14:43:37;4.90;;;4.50;;
38312;SDS011;24114;52.260;6.714;2022-08-19T14:46:05;5.55;;;4.30;;
38312;SDS011;24114;52.260;6.714;2022-08-19T14:48:35;5.75;;;4.65;;
38312;SDS011;24114;52.260;6.714;2022-08-19T14:51:06;6.35;;;5.75;;
38312;SDS011;24114;52.260;6.714;2022-08-19T14:53:37;5.70;;;5.20;;
38312;SDS011;24114;52.260;6.714;2022-08-19T14:56:09;4.88;;;4.50;;
38312;SDS011;24114;52.260;6.714;2022-08-19T14:58:37;5.53;;;4.40;;
38312;SDS011;24114;52.260;6.714;2022-08-19T15:01:06;4.15;;;3.78;;
38312;SDS011;24114;52.260;6.714;2022-08-19T15:03:35;4.15;;;3.85;;
38312;SDS011;24114;52.260;6.714;2022-08-19T15:06:04;3.80;;;3.45;;
38312;SDS011;24114;52.260;6.714;2022-08-19T15:08:33;4.43;;;3.90;;
38312;SDS011;24114;52.260;6.714;2022-08-19T15:11:06;5.47;;;4.00;;